createdAt,value
2018-02-25T00:00:25.128Z,3.40
2018-02-25T00:02:53.380Z,4.43
2018-02-25T00:05:20.888Z,4.77
2018-02-25T00:07:49.137Z,4.53
2018-02-25T00:10:16.644Z,4.27
2018-02-25T00:12:44.895Z,4.40
2018-02-25T00:15:12.396Z,4.23
2018-02-25T00:17:39.872Z,4.53
2018-02-25T00:20:08.141Z,4.50
2018-02-25T00:22:35.630Z,4.67
2018-02-25T00:25:03.908Z,4.83
2018-02-25T00:27:31.387Z,4.73
2018-02-25T00:29:59.677Z,4.67
2018-02-25T00:32:27.922Z,5.37
2018-02-25T00:34:55.423Z,5.70
2018-02-25T00:37:22.912Z,4.77
2018-02-25T00:39:50.418Z,4.53
2018-02-25T00:42:17.899Z,4.43
2018-02-25T00:44:45.407Z,5.10
2018-02-25T00:47:12.928Z,4.80
2018-02-25T00:49:40.416Z,5.20
2018-02-25T00:52:07.908Z,5.10
2018-02-25T00:54:35.416Z,5.00
2018-02-25T00:57:02.910Z,4.43
2018-02-25T00:59:30.422Z,4.93
2018-02-25T01:01:57.904Z,4.80
2018-02-25T01:04:26.178Z,4.90
2018-02-25T01:06:53.659Z,5.03
2018-02-25T01:09:21.929Z,4.70
2018-02-25T01:11:49.415Z,5.80
2018-02-25T01:14:16.921Z,4.73
2018-02-25T01:16:44.408Z,5.70
2018-02-25T01:19:11.912Z,4.97
2018-02-25T01:21:39.399Z,6.67
2018-02-25T01:24:06.905Z,4.40
2018-02-25T01:26:34.399Z,6.30
2018-02-25T01:29:01.903Z,4.90
2018-02-25T01:31:29.379Z,5.10
2018-02-25T01:33:57.651Z,5.77
2018-02-25T01:36:25.139Z,5.80
2018-02-25T01:38:53.414Z,5.50
2018-02-25T01:41:20.901Z,5.00
2018-02-25T01:43:49.174Z,5.03
2018-02-25T01:46:16.656Z,5.47
2018-02-25T01:48:44.926Z,5.13
2018-02-25T01:51:12.408Z,5.57
2018-02-25T01:53:40.135Z,6.27
2018-02-25T01:56:07.624Z,6.27
2018-02-25T01:58:35.108Z,5.00
2018-02-25T02:01:02.612Z,4.93
2018-02-25T02:03:30.897Z,6.10
2018-02-25T02:05:59.166Z,5.37
2018-02-25T02:08:26.648Z,5.70
2018-02-25T02:10:54.919Z,6.87
2018-02-25T02:13:22.400Z,7.10
2018-02-25T02:15:49.901Z,5.97
2018-02-25T02:18:17.395Z,6.03
2018-02-25T02:20:44.895Z,5.57
2018-02-25T02:23:12.383Z,6.40
2018-02-25T02:25:39.888Z,7.20
2018-02-25T02:28:07.373Z,5.97
2018-02-25T02:30:34.880Z,6.90
2018-02-25T02:33:02.368Z,6.23
2018-02-25T02:35:30.654Z,6.80
2018-02-25T02:37:58.910Z,6.10
2018-02-25T02:40:26.424Z,6.50
2018-02-25T02:42:54.675Z,6.33
2018-02-25T02:45:22.189Z,7.10
2018-02-25T02:47:49.684Z,6.00
2018-02-25T02:50:17.201Z,6.80
2018-02-25T02:52:44.696Z,7.07
2018-02-25T02:55:12.216Z,6.10
2018-02-25T02:57:39.711Z,7.70
2018-02-25T03:00:07.240Z,7.80
2018-02-25T03:02:34.733Z,6.70
2018-02-25T03:05:02.252Z,5.97
2018-02-25T03:07:29.741Z,7.80
2018-02-25T03:09:57.263Z,6.70
2018-02-25T03:12:24.755Z,6.63
2018-02-25T03:14:53.036Z,6.97
2018-02-25T03:17:21.292Z,7.87
2018-02-25T03:19:48.807Z,7.13
2018-02-25T03:22:17.065Z,7.67
2018-02-25T03:24:44.592Z,7.47
2018-02-25T03:27:12.089Z,6.80
2018-02-25T03:29:39.622Z,7.20
2018-02-25T03:32:07.116Z,7.23
2018-02-25T03:34:34.628Z,8.30
2018-02-25T03:37:02.896Z,7.90
2018-02-25T03:39:30.416Z,7.43
2018-02-25T03:41:57.938Z,8.93
2018-02-25T03:44:25.460Z,8.00
2018-02-25T03:46:52.944Z,9.03
2018-02-25T03:49:20.461Z,7.30
2018-02-25T03:51:47.960Z,8.20
2018-02-25T03:54:15.476Z,9.10
2018-02-25T03:56:42.955Z,8.03
2018-02-25T03:59:10.470Z,8.87
2018-02-25T04:01:38.721Z,7.90
2018-02-25T04:04:06.237Z,7.97
2018-02-25T04:06:33.738Z,8.57
2018-02-25T04:09:01.241Z,8.53
2018-02-25T04:11:28.745Z,9.27
2018-02-25T04:13:56.259Z,7.93
2018-02-25T04:16:23.773Z,8.37
2018-02-25T04:18:52.028Z,8.00
2018-02-25T04:21:19.554Z,8.53
2018-02-25T04:23:47.093Z,9.40
2018-02-25T04:26:14.676Z,9.07
2018-02-25T04:28:42.936Z,8.33
2018-02-25T04:31:10.452Z,8.93
2018-02-25T04:33:37.940Z,9.70
2018-02-25T04:36:05.454Z,8.40
2018-02-25T04:38:32.956Z,8.47
2018-02-25T04:41:00.473Z,7.80
2018-02-25T04:43:27.968Z,7.70
2018-02-25T04:45:55.492Z,11.10
2018-02-25T04:48:22.984Z,8.57
2018-02-25T04:50:50.501Z,8.13
2018-02-25T04:53:18.755Z,8.23
2018-02-25T04:55:46.268Z,8.30
2018-02-25T04:58:13.753Z,8.63
2018-02-25T05:00:42.132Z,8.13
2018-02-25T05:03:09.628Z,8.40
2018-02-25T05:05:37.139Z,8.40
2018-02-25T05:08:04.647Z,9.60
2018-02-25T05:10:32.155Z,9.13
2018-02-25T05:12:59.648Z,9.90
2018-02-25T05:15:27.161Z,9.73
2018-02-25T05:17:54.662Z,8.97
2018-02-25T05:20:22.185Z,10.00
2018-02-25T05:22:50.452Z,10.17
2018-02-25T05:25:17.975Z,9.47
2018-02-25T05:27:45.481Z,8.90
2018-02-25T05:30:12.998Z,10.40
2018-02-25T05:32:40.495Z,10.87
2018-02-25T05:35:08.027Z,10.10
2018-02-25T05:37:35.536Z,10.50
2018-02-25T05:40:03.048Z,10.43
2018-02-25T05:42:30.546Z,9.80
2018-02-25T05:44:58.069Z,10.60
2018-02-25T05:47:25.568Z,10.57
2018-02-25T05:49:53.849Z,9.37
2018-02-25T05:52:21.345Z,9.27
2018-02-25T05:54:48.879Z,10.23
2018-02-25T05:57:16.379Z,9.33
2018-02-25T05:59:43.890Z,9.57
2018-02-25T06:02:11.380Z,9.40
2018-02-25T06:04:38.887Z,10.17
2018-02-25T06:07:06.385Z,8.90
2018-02-25T06:09:33.916Z,9.70
2018-02-25T06:12:01.453Z,8.73
2018-02-25T06:14:28.962Z,10.07
2018-02-25T06:16:57.249Z,9.00
2018-02-25T06:19:25.517Z,9.60
2018-02-25T06:21:53.035Z,10.50
2018-02-25T06:24:20.524Z,9.90
2018-02-25T06:26:48.041Z,10.90
2018-02-25T06:29:15.545Z,11.37
2018-02-25T06:31:43.064Z,10.40
2018-02-25T06:34:10.564Z,9.13
2018-02-25T06:36:38.843Z,9.63
2018-02-25T06:39:07.109Z,11.00
2018-02-25T06:41:34.632Z,9.30
2018-02-25T06:44:02.126Z,9.60
2018-02-25T06:46:29.647Z,9.57
2018-02-25T06:48:57.926Z,10.63
2018-02-25T06:51:25.435Z,10.80
2018-02-25T06:53:52.930Z,9.67
2018-02-25T06:56:20.443Z,11.23
2018-02-25T06:58:48.704Z,9.33
2018-02-25T07:01:16.227Z,10.50
2018-02-25T07:03:43.722Z,9.90
2018-02-25T07:06:11.236Z,9.33
2018-02-25T07:08:38.746Z,11.27
2018-02-25T07:11:06.260Z,9.97
2018-02-25T07:13:34.523Z,12.03
2018-02-25T07:16:02.040Z,13.97
2018-02-25T07:18:29.532Z,10.20
2018-02-25T07:20:57.807Z,9.50
2018-02-25T07:23:26.068Z,9.53
2018-02-25T07:25:53.571Z,9.00
2018-02-25T07:28:21.839Z,9.40
2018-02-25T07:30:49.351Z,8.33
2018-02-25T07:33:16.844Z,8.00
2018-02-25T07:35:44.355Z,7.60
2018-02-25T07:38:11.844Z,8.60
2018-02-25T07:40:40.121Z,9.00
2018-02-25T07:43:08.376Z,8.73
2018-02-25T07:45:35.892Z,7.60
2018-02-25T07:48:04.135Z,7.07
2018-02-25T07:50:31.646Z,6.93
2018-02-25T07:52:59.913Z,8.00
2018-02-25T07:55:27.433Z,6.53
2018-02-25T07:57:54.921Z,6.60
2018-02-25T08:00:22.438Z,5.90
2018-02-25T08:02:50.690Z,6.17
2018-02-25T08:05:18.203Z,5.83
2018-02-25T08:07:46.455Z,6.50
2018-02-25T08:10:13.970Z,6.67
2018-02-25T08:12:42.221Z,6.00
2018-02-25T08:15:09.738Z,6.07
2018-02-25T08:17:37.228Z,5.93
2018-02-25T08:20:04.736Z,5.50
2018-02-25T08:22:32.224Z,5.93
2018-02-25T08:25:00.480Z,5.33
2018-02-25T08:27:27.984Z,5.57
2018-02-25T08:29:56.236Z,5.53
2018-02-25T08:32:23.736Z,4.87
2018-02-25T08:34:51.222Z,5.20
2018-02-25T08:37:19.500Z,5.53
2018-02-25T08:39:47.754Z,5.00
2018-02-25T08:42:15.269Z,4.47
2018-02-25T08:44:43.528Z,4.60
2018-02-25T08:47:11.038Z,3.93
2018-02-25T08:49:38.543Z,5.00
2018-02-25T08:52:06.052Z,5.40
2018-02-25T08:54:33.541Z,5.50
2018-02-25T08:57:01.854Z,5.00
2018-02-25T08:59:29.361Z,6.03
2018-02-25T09:01:56.855Z,5.17
2018-02-25T09:04:24.341Z,4.37
2018-02-25T09:06:52.614Z,4.70
2018-02-25T09:09:20.885Z,4.00
2018-02-25T09:11:48.409Z,3.90
2018-02-25T09:14:15.897Z,4.67
2018-02-25T09:16:43.406Z,3.70
2018-02-25T09:19:10.884Z,3.43
2018-02-25T09:21:38.390Z,3.50
2018-02-25T09:24:05.869Z,3.87
2018-02-25T09:26:33.393Z,4.10
2018-02-25T09:29:01.653Z,4.50
2018-02-25T09:31:29.180Z,3.80
2018-02-25T09:33:56.665Z,3.80
2018-02-25T09:36:24.185Z,3.20
2018-02-25T09:38:51.672Z,4.50
2018-02-25T09:41:19.956Z,3.47
2018-02-25T09:43:48.208Z,4.00
2018-02-25T09:46:15.715Z,4.00
2018-02-25T09:48:43.978Z,3.33
2018-02-25T09:51:11.510Z,3.70
2018-02-25T09:53:39.007Z,3.53
2018-02-25T09:56:06.509Z,3.93
2018-02-25T09:58:33.988Z,4.70
2018-02-25T10:01:02.260Z,3.77
2018-02-25T10:03:33.072Z,3.70
2018-02-25T10:06:00.579Z,3.13
2018-02-25T10:08:28.060Z,3.60
2018-02-25T10:10:56.334Z,3.90
2018-02-25T10:13:23.824Z,5.13
2018-02-25T10:15:52.088Z,4.30
2018-02-25T10:18:19.581Z,5.37
2018-02-25T10:20:47.889Z,5.37
2018-02-25T10:23:15.399Z,4.00
2018-02-25T10:25:42.907Z,4.40
2018-02-25T10:28:11.161Z,4.50
2018-02-25T10:30:38.701Z,5.00
2018-02-25T10:33:06.185Z,4.40
2018-02-25T10:35:33.722Z,4.33
2018-02-25T10:38:01.240Z,3.43
2018-02-25T10:40:28.720Z,4.83
2018-02-25T10:42:56.233Z,5.53
2018-02-25T10:45:23.724Z,5.00
2018-02-25T10:47:51.219Z,4.60
2018-02-25T10:50:18.700Z,3.47
2018-02-25T10:52:46.234Z,3.50
2018-02-25T10:55:13.719Z,4.13
2018-02-25T10:57:41.220Z,3.17
2018-02-25T11:00:08.709Z,3.67
2018-02-25T11:02:36.224Z,3.83
2018-02-25T11:05:03.777Z,3.77
2018-02-25T11:07:31.369Z,2.80
2018-02-25T11:09:58.905Z,3.43
2018-02-25T11:12:26.374Z,3.00
2018-02-25T11:14:54.625Z,3.37
2018-02-25T11:17:22.124Z,4.03
2018-02-25T11:19:50.369Z,3.70
2018-02-25T11:22:17.875Z,4.47
2018-02-25T11:24:45.360Z,4.10
2018-02-25T11:27:13.658Z,3.60
2018-02-25T11:29:41.147Z,4.20
2018-02-25T11:32:08.648Z,3.70
2018-02-25T11:34:36.154Z,4.23
2018-02-25T11:37:04.536Z,4.90
2018-02-25T11:39:32.019Z,3.50
2018-02-25T11:42:00.294Z,4.10
2018-02-25T11:44:27.794Z,3.40
2018-02-25T11:46:55.296Z,3.97
2018-02-25T11:49:22.782Z,4.10
2018-02-25T11:51:50.330Z,3.97
2018-02-25T11:54:17.825Z,3.50
2018-02-25T11:56:45.340Z,3.60
2018-02-25T11:59:13.600Z,3.30
2018-02-25T12:01:41.145Z,3.33
2018-02-25T12:04:12.279Z,4.63
2018-02-25T12:06:39.796Z,2.93
2018-02-25T12:09:07.288Z,2.93
2018-02-25T12:11:35.571Z,3.00
2018-02-25T12:14:03.864Z,3.10
2018-02-25T12:16:32.159Z,2.57
2018-02-25T12:19:00.459Z,2.33
2018-02-25T12:21:27.961Z,3.60
2018-02-25T12:23:55.476Z,2.87
2018-02-25T12:26:23.730Z,3.33
2018-02-25T12:28:51.241Z,3.17
2018-02-25T12:31:19.524Z,2.33
2018-02-25T12:33:47.796Z,3.20
2018-02-25T12:36:15.288Z,3.10
2018-02-25T12:38:43.581Z,2.93
2018-02-25T12:41:11.084Z,3.33
2018-02-25T12:43:38.594Z,2.60
2018-02-25T12:46:06.069Z,2.97
2018-02-25T12:48:33.584Z,3.67
2018-02-25T12:51:01.073Z,3.20
2018-02-25T12:53:28.584Z,3.10
2018-02-25T12:55:56.092Z,2.70
2018-02-25T12:58:23.793Z,4.57
2018-02-25T13:00:51.297Z,3.50
2018-02-25T13:03:18.793Z,3.80
2018-02-25T13:05:46.305Z,3.10
2018-02-25T13:08:13.788Z,2.90
2018-02-25T13:10:41.291Z,2.93
2018-02-25T13:13:09.586Z,2.60
2018-02-25T13:15:37.097Z,3.60
2018-02-25T13:18:04.585Z,2.93
2018-02-25T13:20:32.087Z,2.90
2018-02-25T13:23:00.328Z,3.57
2018-02-25T13:25:27.829Z,3.37
2018-02-25T13:27:55.321Z,2.77
2018-02-25T13:30:23.594Z,2.63
2018-02-25T13:32:51.084Z,3.20
2018-02-25T13:35:18.596Z,3.00
2018-02-25T13:37:46.081Z,2.47
2018-02-25T13:40:13.580Z,2.90
2018-02-25T13:42:41.832Z,2.70
2018-02-25T13:45:09.312Z,2.60
2018-02-25T13:47:36.825Z,3.00
2018-02-25T13:50:05.077Z,3.40
2018-02-25T13:52:32.579Z,3.07
2018-02-25T13:55:00.828Z,4.00
2018-02-25T13:57:28.327Z,3.57
2018-02-25T13:59:56.573Z,3.37
2018-02-25T14:02:24.083Z,2.87
2018-02-25T14:04:51.577Z,3.07
2018-02-25T14:07:19.081Z,3.50
2018-02-25T14:09:46.570Z,3.47
2018-02-25T14:12:14.089Z,3.70
2018-02-25T14:14:41.576Z,3.20
2018-02-25T14:17:09.085Z,3.40
2018-02-25T14:19:36.573Z,3.30
2018-02-25T14:22:04.082Z,3.80
2018-02-25T14:24:31.606Z,2.93
2018-02-25T14:26:59.080Z,2.90
2018-02-25T14:29:26.565Z,3.60
2018-02-25T14:31:54.853Z,2.67
2018-02-25T14:34:23.109Z,3.17
2018-02-25T14:36:50.626Z,3.40
2018-02-25T14:39:18.117Z,3.10
2018-02-25T14:41:45.657Z,3.43
2018-02-25T14:44:13.918Z,2.90
2018-02-25T14:46:41.413Z,3.37
2018-02-25T14:49:09.742Z,4.27
2018-02-25T14:51:37.949Z,4.23
2018-02-25T14:54:05.467Z,3.73
2018-02-25T14:56:33.717Z,4.27
2018-02-25T14:59:01.228Z,4.27
2018-02-25T15:01:28.733Z,3.90
2018-02-25T15:03:56.252Z,4.03
2018-02-25T15:06:24.506Z,4.37
2018-02-25T15:08:52.013Z,3.90
2018-02-25T15:11:20.270Z,3.50
2018-02-25T15:13:48.083Z,2.80
2018-02-25T15:16:16.340Z,3.50
2018-02-25T15:18:43.849Z,3.57
2018-02-25T15:21:12.096Z,3.43
2018-02-25T15:23:39.628Z,3.00
2018-02-25T15:26:07.125Z,3.67
2018-02-25T15:28:34.628Z,4.50
2018-02-25T15:31:02.116Z,4.03
2018-02-25T15:33:30.385Z,3.60
2018-02-25T15:35:57.866Z,3.60
2018-02-25T15:38:28.072Z,3.10
2018-02-25T15:40:55.569Z,4.00
2018-02-25T15:43:23.851Z,3.83
2018-02-25T15:45:51.352Z,4.17
2018-02-25T15:48:18.853Z,4.00
2018-02-25T15:50:46.339Z,5.60
2018-02-25T15:53:13.844Z,4.80
2018-02-25T15:55:42.090Z,4.10
2018-02-25T15:58:09.606Z,4.27
2018-02-25T16:00:37.864Z,4.70
2018-02-25T16:03:05.369Z,4.10
2018-02-25T16:05:32.868Z,4.93
2018-02-25T16:08:00.372Z,3.93
2018-02-25T16:10:27.861Z,4.37
2018-02-25T16:12:55.368Z,4.57
2018-02-25T16:15:22.865Z,3.43
2018-02-25T16:17:50.399Z,4.90
2018-02-25T16:20:17.875Z,4.40
2018-02-25T16:22:45.384Z,4.40
2018-02-25T16:25:12.867Z,4.43
2018-02-25T16:27:40.368Z,3.93
2018-02-25T16:30:08.631Z,5.60
2018-02-25T16:32:36.148Z,4.33
2018-02-25T16:35:03.620Z,4.73
2018-02-25T16:37:31.126Z,4.10
2018-02-25T16:39:59.613Z,3.63
2018-02-25T16:42:27.120Z,5.00
2018-02-25T16:44:55.382Z,4.63
2018-02-25T16:47:22.897Z,4.10
2018-02-25T16:49:50.388Z,4.20
2018-02-25T16:52:17.876Z,3.80
2018-02-25T16:54:45.391Z,4.50
2018-02-25T16:57:13.645Z,4.47
2018-02-25T16:59:41.143Z,5.70
2018-02-25T17:02:10.632Z,5.73
2018-02-25T17:04:38.914Z,7.40
2018-02-25T17:07:07.384Z,6.97
2018-02-25T17:09:34.893Z,4.80
2018-02-25T17:12:02.380Z,5.10
2018-02-25T17:14:29.886Z,4.70
2018-02-25T17:16:57.372Z,4.70
2018-02-25T17:19:24.886Z,4.83
2018-02-25T17:21:52.373Z,4.83
2018-02-25T17:24:20.645Z,6.30
2018-02-25T17:26:48.125Z,4.57
2018-02-25T17:29:16.404Z,5.00
2018-02-25T17:31:43.893Z,4.30
2018-02-25T17:34:11.401Z,5.30
2018-02-25T17:36:38.884Z,5.73
2018-02-25T17:39:06.388Z,4.10
2018-02-25T17:41:33.885Z,19.63
2018-02-25T17:44:01.399Z,5.33
2018-02-25T17:46:28.880Z,5.17
2018-02-25T17:48:56.396Z,4.80
2018-02-25T17:51:23.879Z,4.10
2018-02-25T17:53:51.381Z,3.47
2018-02-25T17:56:18.868Z,3.90
2018-02-25T17:58:46.376Z,3.70
2018-02-25T18:01:15.809Z,3.73
2018-02-25T18:03:43.342Z,3.73
2018-02-25T18:06:11.612Z,4.87
2018-02-25T18:08:39.914Z,4.63
2018-02-25T18:11:08.169Z,3.83
2018-02-25T18:13:35.668Z,4.20
2018-02-25T18:16:03.156Z,4.03
2018-02-25T18:18:31.434Z,10.90
2018-02-25T18:20:59.691Z,6.67
2018-02-25T18:23:27.213Z,5.63
2018-02-25T18:25:54.705Z,5.10
2018-02-25T18:28:22.226Z,5.60
2018-02-25T18:30:49.714Z,3.80
2018-02-25T18:33:17.996Z,4.10
2018-02-25T18:35:46.257Z,4.30
2018-02-25T18:38:13.769Z,3.70
2018-02-25T18:40:41.261Z,4.83
2018-02-25T18:43:08.769Z,4.13
2018-02-25T18:45:36.266Z,3.83
2018-02-25T18:48:04.541Z,4.03
2018-02-25T18:50:35.156Z,3.27
2018-02-25T18:53:02.665Z,3.90
2018-02-25T18:55:30.936Z,3.10
2018-02-25T18:57:58.436Z,3.50
2018-02-25T19:00:26.699Z,3.70
2018-02-25T19:02:55.144Z,4.10
2018-02-25T19:05:22.656Z,3.70
2018-02-25T19:07:50.160Z,3.50
2018-02-25T19:10:17.681Z,3.93
2018-02-25T19:12:45.164Z,3.03
2018-02-25T19:15:12.689Z,4.30
2018-02-25T19:17:40.185Z,3.73
2018-02-25T19:20:07.710Z,5.70
2018-02-25T19:22:35.984Z,4.53
2018-02-25T19:25:04.261Z,3.60
2018-02-25T19:27:31.749Z,3.30
2018-02-25T19:30:00.037Z,3.73
2018-02-25T19:32:28.313Z,4.30
2018-02-25T19:34:55.827Z,4.53
2018-02-25T19:37:28.944Z,3.97
2018-02-25T19:40:06.639Z,3.90
2018-02-25T19:42:34.134Z,3.27
2018-02-25T19:45:01.643Z,3.67
2018-02-25T19:47:29.152Z,3.70
2018-02-25T19:49:56.667Z,4.20
2018-02-25T19:52:24.155Z,4.20
2018-02-25T19:54:51.950Z,3.70
2018-02-25T19:57:19.516Z,3.50
2018-02-25T19:59:47.788Z,3.90
2018-02-25T20:02:15.284Z,3.77
2018-02-25T20:04:42.792Z,3.33
2018-02-25T20:07:10.295Z,4.20
2018-02-25T20:09:37.808Z,3.90
2018-02-25T20:12:05.308Z,3.80
2018-02-25T20:14:32.824Z,4.60
2018-02-25T20:17:01.116Z,3.87
2018-02-25T20:19:29.393Z,4.00
2018-02-25T20:21:57.662Z,3.87
2018-02-25T20:24:25.187Z,3.77
2018-02-25T20:26:52.681Z,4.93
2018-02-25T20:29:20.176Z,3.10
2018-02-25T20:31:47.693Z,4.27
2018-02-25T20:34:15.173Z,3.33
2018-02-25T20:36:42.680Z,4.47
2018-02-25T20:39:10.169Z,3.70
2018-02-25T20:41:37.676Z,4.20
2018-02-25T20:44:05.168Z,4.37
2018-02-25T20:46:32.673Z,7.20
2018-02-25T20:49:00.172Z,11.10
2018-02-25T20:51:27.686Z,3.47
2018-02-25T20:53:55.252Z,3.53
2018-02-25T20:56:23.479Z,3.93
2018-02-25T20:58:50.969Z,4.40
2018-02-25T21:01:19.240Z,3.90
2018-02-25T21:03:47.491Z,3.50
2018-02-25T21:06:15.007Z,3.70
2018-02-25T21:08:43.261Z,3.43
2018-02-25T21:13:47.443Z,3.43
2018-02-25T21:16:15.725Z,3.57
2018-02-25T21:18:43.207Z,4.00
2018-02-25T21:21:11.481Z,4.07
2018-02-25T21:23:38.975Z,4.60
2018-02-25T21:26:07.251Z,3.20
2018-02-25T21:28:35.498Z,3.97
2018-02-25T21:31:03.003Z,3.67
2018-02-25T21:33:30.611Z,3.93
2018-02-25T21:35:58.112Z,3.90
2018-02-25T21:38:25.588Z,3.90
2018-02-25T21:40:53.097Z,3.63
2018-02-25T21:43:21.349Z,10.43
2018-02-25T21:45:48.860Z,6.10
2018-02-25T21:48:17.126Z,3.87
2018-02-25T21:50:44.625Z,3.60
2018-02-25T21:53:14.708Z,3.30
2018-02-25T21:55:48.057Z,3.33
2018-02-25T22:01:29.852Z,3.93
2018-02-25T22:03:59.117Z,3.60
2018-02-25T22:06:27.384Z,3.43
2018-02-25T22:08:54.876Z,3.43
2018-02-25T22:11:22.399Z,3.50
2018-02-25T22:13:49.890Z,4.20
2018-02-25T22:16:17.406Z,3.97
2018-02-25T22:18:44.897Z,3.97
2018-02-25T22:21:12.410Z,3.97
2018-02-25T22:23:40.673Z,4.30
2018-02-25T22:26:08.182Z,4.23
2018-02-25T22:28:36.432Z,4.13
2018-02-25T22:31:03.935Z,3.33
2018-02-25T22:33:32.184Z,3.67
2018-02-25T22:35:59.688Z,4.17
2018-02-25T22:38:27.934Z,3.93
2018-02-25T22:40:55.440Z,3.47
2018-02-25T22:43:22.918Z,3.90
2018-02-25T22:45:51.188Z,3.57
2018-02-25T22:48:18.679Z,3.97
2018-02-25T22:50:46.943Z,4.10
2018-02-25T22:53:14.433Z,4.20
2018-02-25T22:55:42.710Z,3.87
2018-02-25T22:58:10.196Z,4.00
2018-02-25T23:00:38.466Z,3.73
2018-02-25T23:03:05.949Z,4.63
2018-02-25T23:05:34.229Z,4.17
2018-02-25T23:08:01.717Z,4.07
2018-02-25T23:10:29.989Z,3.90
2018-02-25T23:12:57.494Z,4.70
2018-02-25T23:15:25.002Z,3.97
2018-02-25T23:17:52.488Z,4.30
2018-02-25T23:20:20.002Z,4.27
2018-02-25T23:22:47.483Z,4.03
2018-02-25T23:25:14.973Z,4.40
2018-02-25T23:27:42.478Z,3.70
2018-02-25T23:30:09.965Z,3.97
2018-02-25T23:32:38.245Z,4.80
2018-02-25T23:35:06.488Z,3.30
2018-02-25T23:37:33.997Z,4.13
2018-02-25T23:40:01.472Z,4.50
2018-02-25T23:42:29.748Z,4.23
2018-02-25T23:44:57.237Z,4.20
2018-02-25T23:47:25.521Z,4.77
2018-02-25T23:49:53.781Z,4.10
2018-02-25T23:52:21.292Z,3.57
2018-02-25T23:54:49.536Z,4.60
2018-02-25T23:57:17.045Z,4.37
2018-02-25T23:59:44.537Z,4.57
